Time;durP1;ratioP1;P1;durP2;ratioP2;P2;SDS_P1;SDS_P2;PMS_P1;PMS_P2;Temp;Humidity;BMP_temperature;BMP_pressure;BME280_temperature;BME280_humidity;BME280_pressure;Samples;Min_cycle;Max_cycle;Signal;HPM_P1;HPM_P2
2023/05/08 00:01:51;;;;;;;0.90;0.82;;;11.00;99.90;;;;;;5029099;28;19999;-75
2023/05/08 00:04:19;;;;;;;0.40;0.40;;;10.90;99.90;;;;;;5027333;28;20033;-73
2023/05/08 00:06:50;;;;;;;1.00;0.70;;;10.90;99.90;;;;;;5027755;28;20041;-74
2023/05/08 00:09:16;;;;;;;0.38;0.38;;;10.90;99.90;;;;;;5020950;28;20045;-74
2023/05/08 00:11:41;;;;;;;1.10;0.70;;;10.80;99.90;;;;;;5028854;28;20053;-74
2023/05/08 00:14:07;;;;;;;0.47;0.47;;;10.80;99.90;;;;;;5011045;28;20391;-73
2023/05/08 00:16:33;;;;;;;0.50;0.50;;;10.70;99.90;;;;;;5028480;28;20160;-75
2023/05/08 00:18:59;;;;;;;0.50;0.50;;;10.70;99.90;;;;;;5028030;28;20050;-75
2023/05/08 00:21:25;;;;;;;0.63;0.63;;;10.70;99.90;;;;;;5028814;28;20037;-73
2023/05/08 00:23:51;;;;;;;;;;;10.60;99.90;;;;;;5028114;28;20473;-75
2023/05/08 00:26:16;;;;;;;1.55;1.45;;;10.60;99.90;;;;;;5028233;28;19925;-76
2023/05/08 00:28:42;;;;;;;1.33;0.65;;;10.60;99.90;;;;;;5012224;28;20406;-75
2023/05/08 00:31:08;;;;;;;2.30;0.60;;;10.50;99.90;;;;;;5027262;28;20088;-77
2023/05/08 00:33:33;;;;;;;0.50;0.50;;;10.50;99.90;;;;;;5017762;28;20040;-73
2023/05/08 00:36:04;;;;;;;0.70;0.70;;;10.50;99.90;;;;;;5011872;28;20037;-77
2023/05/08 00:38:31;;;;;;;0.68;0.57;;;10.50;99.90;;;;;;5027242;28;20077;-76
2023/05/08 00:40:57;;;;;;;0.50;0.50;;;10.40;99.90;;;;;;5010751;28;20448;-75
2023/05/08 00:43:27;;;;;;;1.33;1.25;;;10.30;99.90;;;;;;5027415;28;20054;-76
2023/05/08 00:45:58;;;;;;;0.40;0.40;;;10.30;99.90;;;;;;5028316;28;20033;-76
2023/05/08 00:48:27;;;;;;;0.65;0.63;;;10.20;99.90;;;;;;5026910;28;20064;-76
2023/05/08 00:50:54;;;;;;;0.50;0.50;;;10.20;99.90;;;;;;5024252;28;20395;-75
2023/05/08 00:53:21;;;;;;;0.52;0.52;;;10.10;99.90;;;;;;5027034;28;20395;-76
2023/05/08 00:55:49;;;;;;;0.30;0.30;;;10.10;99.90;;;;;;5010602;28;20049;-76
2023/05/08 00:58:15;;;;;;;0.88;0.43;;;10.10;99.90;;;;;;5012250;28;20038;-75
2023/05/08 01:00:43;;;;;;;0.55;0.55;;;10.00;99.90;;;;;;5027143;28;20049;-76
2023/05/08 01:03:10;;;;;;;0.50;0.50;;;10.00;99.90;;;;;;5027764;28;20040;-75
2023/05/08 01:05:37;;;;;;;0.40;0.40;;;10.00;99.90;;;;;;5028026;28;20042;-76
2023/05/08 01:08:03;;;;;;;0.50;0.50;;;10.00;99.90;;;;;;5027640;28;20041;-76
2023/05/08 01:10:47;;;;;;;0.95;0.70;;;9.90;99.90;;;;;;5010245;28;20033;-76
2023/05/08 01:13:48;;;;;;;0.43;0.43;;;9.90;99.90;;;;;;5028185;28;20669;-75
2023/05/08 01:16:40;;;;;;;0.57;0.57;;;9.90;99.90;;;;;;5025773;28;20037;-76
2023/05/08 01:19:26;;;;;;;0.40;0.40;;;9.90;99.90;;;;;;5020818;28;20057;-76
2023/05/08 01:22:06;;;;;;;0.73;0.73;;;9.80;99.90;;;;;;5027359;28;20399;-75
2023/05/08 01:24:50;;;;;;;0.50;0.50;;;9.80;99.90;;;;;;5009920;28;20045;-76
2023/05/08 01:27:46;;;;;;;0.40;0.40;;;9.80;99.90;;;;;;5044043;28;20132;-75
2023/05/08 01:30:39;;;;;;;0.93;0.93;;;9.70;99.90;;;;;;5011096;28;20033;-76
2023/05/08 01:33:16;;;;;;;0.85;0.85;;;9.70;99.90;;;;;;5022407;28;20041;-74
2023/05/08 01:35:50;;;;;;;0.55;0.55;;;9.70;99.90;;;;;;5042848;28;20414;-75
2023/05/08 01:38:43;;;;;;;0.40;0.40;;;9.70;99.90;;;;;;5027121;28;20045;-76
2023/05/08 01:41:15;;;;;;;0.40;0.40;;;9.70;99.90;;;;;;5027737;28;20045;-73
2023/05/08 01:43:49;;;;;;;0.40;0.40;;;9.60;99.90;;;;;;5025846;28;20513;-75
2023/05/08 01:46:23;;;;;;;0.75;0.75;;;9.60;99.90;;;;;;5027382;28;20037;-75
2023/05/08 01:48:55;;;;;;;0.40;0.40;;;9.60;99.90;;;;;;5027374;28;20088;-74
2023/05/08 01:51:27;;;;;;;0.50;0.50;;;9.60;99.90;;;;;;5027822;28;20048;-75
2023/05/08 01:54:02;;;;;;;0.50;0.50;;;9.50;99.90;;;;;;5023852;28;20165;-74
2023/05/08 01:56:29;;;;;;;0.50;0.50;;;9.60;99.90;;;;;;5023377;28;20520;-74
2023/05/08 01:58:57;;;;;;;0.50;0.50;;;9.60;99.90;;;;;;5002802;28;20038;-74
2023/05/08 02:01:24;;;;;;;0.60;0.60;;;9.50;99.90;;;;;;5006238;28;20037;-76
2023/05/08 02:03:52;;;;;;;0.50;0.50;;;9.50;99.90;;;;;;5025545;28;20090;-75
2023/05/08 02:06:20;;;;;;;1.05;1.05;;;9.50;99.90;;;;;;5026174;28;20086;-76
2023/05/08 02:08:47;;;;;;;0.50;0.50;;;9.50;99.90;;;;;;4995895;28;20069;-76
2023/05/08 02:11:15;;;;;;;0.88;0.73;;;9.50;99.90;;;;;;5025985;28;20097;-75
2023/05/08 02:13:43;;;;;;;0.50;0.50;;;9.50;99.90;;;;;;5026330;28;20092;-76
2023/05/08 02:16:11;;;;;;;1.00;0.82;;;9.50;99.90;;;;;;5023853;28;20465;-76
2023/05/08 02:18:39;;;;;;;0.40;0.40;;;9.50;99.90;;;;;;5027929;28;20068;-75
2023/05/08 02:21:06;;;;;;;0.40;0.40;;;9.50;99.90;;;;;;5025950;28;20052;-78
2023/05/08 02:23:33;;;;;;;0.40;0.40;;;9.40;99.90;;;;;;5011059;28;20037;-75
2023/05/08 02:26:02;;;;;;;0.60;0.60;;;9.40;99.90;;;;;;5026093;28;20434;-74
2023/05/08 02:28:29;;;;;;;0.50;0.50;;;9.40;99.90;;;;;;5025646;28;20394;-74
2023/05/08 02:30:56;;;;;;;0.40;0.40;;;9.30;99.90;;;;;;5023904;28;20207;-73
2023/05/08 02:33:23;;;;;;;0.30;0.30;;;9.30;99.90;;;;;;5027118;28;20054;-76
2023/05/08 02:35:50;;;;;;;0.30;0.30;;;9.30;99.90;;;;;;5031026;28;20819;-76
2023/05/08 02:38:19;;;;;;;0.40;0.40;;;9.30;99.90;;;;;;5027640;28;20080;-74
2023/05/08 02:40:54;;;;;;;0.85;0.85;;;9.20;99.90;;;;;;5030234;28;20140;-76
2023/05/08 02:43:20;;;;;;;0.52;0.52;;;9.20;99.90;;;;;;5031313;28;20072;-75
2023/05/08 02:45:51;;;;;;;0.35;0.35;;;9.20;99.90;;;;;;5029060;28;20095;-77
2023/05/08 02:48:32;;;;;;;0.40;0.40;;;8.40;99.90;;;;;;5029028;28;20056;-75
2023/05/08 02:51:09;;;;;;;0.50;0.50;;;9.20;99.90;;;;;;5030197;28;20517;-78
2023/05/08 02:53:44;;;;;;;1.75;1.25;;;9.10;99.90;;;;;;5030218;28;20502;-77
2023/05/08 02:56:20;;;;;;;0.50;0.50;;;9.10;99.90;;;;;;5029784;28;20055;-76
2023/05/08 02:58:55;;;;;;;1.45;0.65;;;9.10;99.90;;;;;;5023191;28;20041;-75
2023/05/08 03:01:28;;;;;;;0.68;0.68;;;9.00;99.90;;;;;;5013032;28;20387;-76
2023/05/08 03:04:02;;;;;;;0.68;0.68;;;9.00;99.90;;;;;;5028694;28;20117;-75
2023/05/08 03:06:35;;;;;;;0.45;0.45;;;9.00;99.90;;;;;;5026133;28;20541;-77
2023/05/08 03:09:04;;;;;;;0.30;0.30;;;9.00;99.90;;;;;;5024020;28;20052;-75
2023/05/08 03:11:37;;;;;;;0.55;0.55;;;8.90;99.90;;;;;;5013866;28;20045;-75
2023/05/08 03:14:05;;;;;;;1.55;1.27;;;8.90;99.90;;;;;;5029584;28;20077;-77
2023/05/08 03:16:33;;;;;;;0.40;0.40;;;8.90;99.90;;;;;;5013685;28;20076;-76
2023/05/08 03:19:06;;;;;;;0.50;0.50;;;8.90;99.90;;;;;;5028524;28;20041;-76
2023/05/08 03:21:33;;;;;;;0.30;0.30;;;8.80;99.90;;;;;;5013943;28;20666;-75
2023/05/08 03:24:01;;;;;;;0.52;0.52;;;8.80;99.90;;;;;;5030796;28;20068;-75
2023/05/08 03:26:28;;;;;;;0.73;0.73;;;8.80;99.90;;;;;;5027795;28;20501;-76
2023/05/08 03:28:56;;;;;;;0.70;0.70;;;8.80;99.90;;;;;;5026578;28;20049;-74
2023/05/08 03:31:23;;;;;;;0.40;0.40;;;8.80;99.90;;;;;;5029851;28;20046;-78
2023/05/08 03:33:52;;;;;;;0.55;0.55;;;8.80;99.90;;;;;;5027519;28;20094;-77
2023/05/08 03:36:18;;;;;;;0.98;0.93;;;8.80;99.90;;;;;;5029037;28;20049;-75
2023/05/08 03:38:44;;;;;;;0.52;0.52;;;8.80;99.90;;;;;;5027818;28;20057;-77
2023/05/08 03:41:11;;;;;;;0.40;0.40;;;8.70;99.90;;;;;;5013158;28;20094;-76
2023/05/08 03:43:37;;;;;;;0.45;0.45;;;8.80;99.90;;;;;;5012318;28;20084;-74
2023/05/08 03:46:06;;;;;;;;;;;8.70;99.90;;;;;;5023040;28;20384;-75
2023/05/08 03:48:33;;;;;;;0.32;0.32;;;8.70;99.90;;;;;;5038332;28;19921;-73
2023/05/08 03:51:03;;;;;;;0.47;0.47;;;8.70;99.90;;;;;;5029405;28;20411;-75
2023/05/08 03:53:30;;;;;;;0.30;0.30;;;8.70;99.90;;;;;;5030025;28;20402;-77
2023/05/08 03:55:57;;;;;;;0.50;0.50;;;8.70;99.90;;;;;;5028701;28;20124;-75
2023/05/08 03:58:35;;;;;;;0.40;0.40;;;8.70;99.90;;;;;;5029535;28;20041;-77
2023/05/08 04:01:20;;;;;;;0.70;0.70;;;8.60;99.90;;;;;;5028245;28;20389;-76
2023/05/08 04:04:30;;;;;;;0.50;0.50;;;8.60;99.90;;;;;;5029551;28;20398;-76
2023/05/08 04:06:59;;;;;;;0.60;0.60;;;8.70;99.90;;;;;;5018168;28;20483;-75
2023/05/08 04:09:48;;;;;;;0.40;0.40;;;8.60;99.90;;;;;;5028194;28;20041;-77
2023/05/08 04:12:19;;;;;;;0.38;0.38;;;8.60;99.90;;;;;;5028936;28;20043;-75
2023/05/08 04:14:52;;;;;;;0.38;0.38;;;8.60;99.90;;;;;;5027217;28;20045;-77
2023/05/08 04:17:31;;;;;;;0.50;0.50;;;8.60;99.90;;;;;;5042280;28;20045;-75
2023/05/08 04:20:02;;;;;;;0.52;0.52;;;8.60;99.90;;;;;;5010657;28;20525;-76
2023/05/08 04:22:30;;;;;;;0.75;0.65;;;8.70;99.90;;;;;;5027615;28;20042;-77
2023/05/08 04:24:58;;;;;;;0.40;0.40;;;8.70;99.90;;;;;;5021912;28;20037;-76
2023/05/08 04:27:24;;;;;;;0.32;0.32;;;8.70;99.90;;;;;;5026717;28;20036;-76
2023/05/08 04:29:50;;;;;;;0.40;0.40;;;8.70;99.90;;;;;;5027447;28;20042;-77
2023/05/08 04:32:16;;;;;;;0.65;0.65;;;8.70;99.90;;;;;;5010723;28;20045;-75
2023/05/08 04:34:42;;;;;;;0.40;0.40;;;8.80;99.90;;;;;;5011469;28;20399;-77
2023/05/08 04:37:08;;;;;;;0.93;0.93;;;8.90;99.90;;;;;;5026230;28;20384;-74
2023/05/08 04:39:33;;;;;;;0.60;0.60;;;8.90;99.90;;;;;;5031826;28;20082;-74
2023/05/08 04:42:02;;;;;;;0.60;0.60;;;9.00;99.90;;;;;;5030736;28;20102;-77
2023/05/08 04:44:28;;;;;;;0.50;0.50;;;9.00;99.90;;;;;;5032547;28;20049;-77
2023/05/08 04:46:54;;;;;;;0.55;0.55;;;9.10;99.90;;;;;;5015927;28;20040;-75
2023/05/08 04:49:20;;;;;;;0.47;0.38;;;9.10;99.90;;;;;;5031276;28;20113;-74
2023/05/08 04:51:45;;;;;;;0.55;0.55;;;9.20;99.90;;;;;;5013424;28;20050;-75
2023/05/08 04:54:11;;;;;;;0.50;0.50;;;9.20;99.90;;;;;;5032403;28;20049;-75
2023/05/08 04:56:37;;;;;;;0.50;0.50;;;9.20;99.90;;;;;;5031038;28;20091;-77
2023/05/08 04:59:02;;;;;;;1.48;0.90;;;9.30;99.90;;;;;;5030483;28;20048;-75
2023/05/08 05:01:28;;;;;;;0.77;0.77;;;9.40;99.90;;;;;;5029430;28;20032;-75
2023/05/08 05:03:54;;;;;;;0.40;0.40;;;9.50;99.90;;;;;;5017514;28;20483;-74
2023/05/08 05:06:19;;;;;;;0.45;0.45;;;9.50;99.90;;;;;;5011774;28;20037;-74
2023/05/08 05:08:45;;;;;;;0.70;0.70;;;9.50;99.90;;;;;;5007936;28;20052;-74
2023/05/08 05:11:10;;;;;;;0.70;0.70;;;9.60;99.90;;;;;;5030619;28;20120;-73
2023/05/08 05:13:36;;;;;;;1.77;1.67;;;9.70;99.90;;;;;;5028495;28;20087;-77
2023/05/08 05:16:02;;;;;;;1.27;0.85;;;9.70;99.90;;;;;;5012871;28;20052;-75
2023/05/08 05:18:28;;;;;;;0.50;0.50;;;9.80;99.90;;;;;;4997848;28;20043;-74
2023/05/08 05:20:56;;;;;;;0.40;0.40;;;9.80;99.90;;;;;;5012229;28;20068;-76
2023/05/08 05:23:22;;;;;;;2.95;0.98;;;9.90;99.90;;;;;;5027682;28;20028;-76
2023/05/08 05:25:48;;;;;;;0.65;0.65;;;9.90;99.90;;;;;;5030699;28;20070;-75
2023/05/08 05:28:13;;;;;;;0.82;0.82;;;10.00;99.90;;;;;;5030565;28;20040;-76
2023/05/08 05:30:39;;;;;;;1.00;1.00;;;10.00;99.90;;;;;;5029294;28;20414;-76
2023/05/08 05:33:05;;;;;;;0.55;0.55;;;10.10;99.90;;;;;;5014375;28;20127;-76
2023/05/08 05:35:30;;;;;;;0.60;0.60;;;10.10;99.90;;;;;;5030307;28;20068;-74
2023/05/08 05:37:56;;;;;;;0.85;0.85;;;10.20;99.90;;;;;;5012210;28;20065;-73
2023/05/08 05:40:22;;;;;;;0.60;0.60;;;10.30;99.90;;;;;;5032022;28;20045;-75
2023/05/08 05:42:49;;;;;;;0.45;0.45;;;10.30;99.90;;;;;;5041080;28;20041;-75
2023/05/08 05:45:15;;;;;;;0.30;0.30;;;10.40;99.90;;;;;;5039102;28;20947;-73
2023/05/08 05:47:48;;;;;;;0.47;0.47;;;10.40;99.90;;;;;;5030285;28;20135;-75
2023/05/08 05:50:16;;;;;;;0.50;0.50;;;10.50;99.90;;;;;;5028810;28;20406;-75
2023/05/08 05:52:41;;;;;;;1.23;1.13;;;10.50;99.90;;;;;;5008313;28;20048;-75
2023/05/08 05:55:07;;;;;;;0.80;0.80;;;10.60;99.90;;;;;;5022539;28;20040;-74
2023/05/08 05:57:33;;;;;;;0.90;0.90;;;10.60;99.90;;;;;;5042218;28;20041;-75
2023/05/08 05:59:59;;;;;;;0.40;0.40;;;10.70;99.90;;;;;;4980511;28;20723;-74
2023/05/08 06:02:25;;;;;;;0.43;0.43;;;10.70;99.90;;;;;;5025494;28;20043;-73
2023/05/08 06:04:51;;;;;;;0.73;0.73;;;10.80;99.90;;;;;;5008932;28;20041;-75
2023/05/08 06:07:17;;;;;;;0.88;0.80;;;10.90;99.90;;;;;;5013305;28;20217;-76
2023/05/08 06:09:42;;;;;;;0.77;0.77;;;10.90;99.90;;;;;;5008023;28;20084;-75
2023/05/08 06:12:08;;;;;;;1.45;1.35;;;11.00;99.90;;;;;;5032225;28;20074;-75
2023/05/08 06:14:34;;;;;;;0.93;0.80;;;11.10;99.90;;;;;;5034124;28;20065;-75
2023/05/08 06:17:00;;;;;;;0.93;0.93;;;11.10;99.90;;;;;;5017539;28;20052;-77
2023/05/08 06:19:27;;;;;;;0.47;0.47;;;11.20;99.90;;;;;;5029313;28;20049;-76
2023/05/08 06:21:53;;;;;;;0.40;0.40;;;11.30;99.90;;;;;;5033674;28;20120;-75
2023/05/08 06:24:19;;;;;;;0.60;0.60;;;11.50;99.90;;;;;;5027096;28;20450;-77
2023/05/08 06:26:45;;;;;;;1.10;0.73;;;11.70;99.90;;;;;;5029079;28;20048;-78
2023/05/08 06:29:11;;;;;;;0.30;0.30;;;12.00;99.90;;;;;;5014025;28;20193;-77
2023/05/08 06:31:37;;;;;;;0.40;0.40;;;12.20;99.90;;;;;;5032338;28;20052;-77
2023/05/08 06:34:03;;;;;;;1.13;0.52;;;12.50;99.90;;;;;;5031570;28;20053;-77
2023/05/08 06:36:29;;;;;;;0.30;0.30;;;12.80;99.90;;;;;;5024473;28;20387;-75
2023/05/08 06:38:55;;;;;;;;;;;13.00;99.90;;;;;;5031814;28;20428;-76
2023/05/08 06:41:20;;;;;;;0.93;0.93;;;13.30;99.90;;;;;;5034099;28;19920;-76
2023/05/08 06:43:46;;;;;;;;;;;13.60;99.90;;;;;;5029632;28;20045;-77
2023/05/08 06:46:12;;;;;;;0.63;0.60;;;13.80;99.90;;;;;;5031391;28;19920;-76
2023/05/08 06:48:37;;;;;;;1.95;1.85;;;14.00;99.90;;;;;;5038996;28;20090;-75
2023/05/08 06:51:03;;;;;;;0.50;0.50;;;14.20;99.90;;;;;;5038303;28;20049;-76
2023/05/08 06:53:29;;;;;;;;;;;14.40;99.90;;;;;;5013605;28;20041;-79
2023/05/08 06:55:57;;;;;;;0.40;0.40;;;14.70;99.90;;;;;;5030966;28;19955;-78
2023/05/08 06:58:23;;;;;;;0.82;0.82;;;14.70;99.90;;;;;;5016136;28;20394;-76
2023/05/08 07:00:49;;;;;;;1.42;1.42;;;14.70;99.90;;;;;;5029140;28;20036;-77
2023/05/08 07:03:15;;;;;;;;;;;14.70;99.90;;;;;;5032571;28;20045;-76
2023/05/08 07:05:40;;;;;;;0.57;0.57;;;14.70;99.90;;;;;;5021147;28;20031;-77
2023/05/08 07:08:06;;;;;;;0.40;0.40;;;14.70;99.90;;;;;;5040999;28;20477;-82
2023/05/08 07:10:32;;;;;;;1.48;1.05;;;14.80;99.90;;;;;;5032883;28;20133;-85
2023/05/08 07:12:57;;;;;;;;;;;14.80;99.90;;;;;;5033157;28;20041;-80
2023/05/08 07:15:23;;;;;;;0.93;0.93;;;14.80;99.90;;;;;;5015069;28;20419;-81
2023/05/08 07:17:49;;;;;;;;;;;14.90;99.90;;;;;;5033344;28;20045;-80
2023/05/08 07:20:15;;;;;;;0.60;0.60;;;14.80;99.90;;;;;;5033199;28;19971;-81
2023/05/08 07:22:41;;;;;;;0.40;0.40;;;14.80;99.90;;;;;;5001749;28;20665;-80
2023/05/08 07:25:07;;;;;;;1.45;0.65;;;14.70;99.90;;;;;;5041066;28;20056;-81
2023/05/08 07:27:33;;;;;;;0.40;0.40;;;14.70;99.90;;;;;;5008962;28;20431;-80
2023/05/08 07:30:02;;;;;;;0.20;0.20;;;14.80;99.90;;;;;;5035397;28;20090;-80
2023/05/08 07:32:30;;;;;;;0.50;0.50;;;14.80;99.90;;;;;;5024227;28;20057;-80
2023/05/08 07:34:55;;;;;;;0.60;0.60;;;14.80;99.90;;;;;;5033615;28;20051;-80
2023/05/08 07:37:21;;;;;;;0.43;0.43;;;14.80;99.90;;;;;;4997136;28;20340;-79
2023/05/08 07:39:47;;;;;;;;;;;14.80;99.90;;;;;;4997752;28;20095;-79
2023/05/08 07:42:13;;;;;;;0.85;0.85;;;14.90;99.90;;;;;;5032786;28;19956;-79
2023/05/08 07:44:38;;;;;;;;;;;14.90;99.90;;;;;;5017042;28;20463;-79
2023/05/08 07:47:04;;;;;;;0.98;0.77;;;15.10;99.90;;;;;;5032684;28;19920;-79
2023/05/08 07:49:30;;;;;;;0.47;0.47;;;15.20;99.90;;;;;;5016659;28;20068;-79
2023/05/08 07:51:55;;;;;;;;;;;15.20;99.90;;;;;;5033035;28;20780;-79
2023/05/08 07:54:21;;;;;;;0.52;0.52;;;15.30;99.90;;;;;;5035537;28;19974;-79
2023/05/08 07:56:47;;;;;;;;;;;15.30;99.90;;;;;;5042527;28;20462;-80
2023/05/08 07:59:12;;;;;;;1.00;0.68;;;15.20;99.90;;;;;;5024621;28;19921;-79
2023/05/08 08:01:38;;;;;;;;;;;15.10;99.90;;;;;;5027761;28;20174;-79
2023/05/08 08:04:04;;;;;;;0.68;0.68;;;15.00;99.90;;;;;;5013126;28;19921;-79
2023/05/08 08:06:30;;;;;;;0.43;0.43;;;14.80;99.90;;;;;;5011374;28;20390;-80
2023/05/08 08:08:56;;;;;;;6.95;1.50;;;14.70;99.90;;;;;;5024078;28;20420;-81
2023/05/08 08:11:22;;;;;;;0.60;0.60;;;14.50;99.90;;;;;;4998234;28;20124;-81
2023/05/08 08:13:47;;;;;;;;;;;14.40;99.90;;;;;;5025888;28;20438;-80
2023/05/08 08:16:13;;;;;;;0.98;0.98;;;14.30;99.90;;;;;;5043549;28;19927;-82
2023/05/08 08:18:39;;;;;;;0.50;0.45;;;14.20;99.90;;;;;;5028198;28;20091;-79
2023/05/08 08:21:05;;;;;;;;;;;14.10;99.90;;;;;;5042303;28;21457;-82
2023/05/08 08:23:31;;;;;;;2.10;1.00;;;14.10;99.90;;;;;;5020096;28;19928;-81
2023/05/08 08:25:57;;;;;;;0.50;0.50;;;14.10;99.90;;;;;;5022937;28;20047;-81
2023/05/08 08:28:23;;;;;;;0.88;0.88;;;14.10;99.90;;;;;;5019639;28;20036;-81
2023/05/08 08:30:48;;;;;;;;;;;14.20;99.90;;;;;;5027006;28;20036;-82
2023/05/08 08:33:14;;;;;;;0.90;0.90;;;14.20;99.90;;;;;;5044571;28;19990;-82
2023/05/08 08:35:39;;;;;;;;;;;14.30;99.90;;;;;;5028930;28;20041;-82
2023/05/08 08:38:05;;;;;;;0.88;0.88;;;14.50;99.90;;;;;;5022650;28;19924;-82
2023/05/08 08:40:31;;;;;;;1.13;1.02;;;14.60;99.90;;;;;;5023100;28;20041;-81
2023/05/08 08:42:57;;;;;;;;;;;14.70;99.90;;;;;;5009663;28;20049;-80
2023/05/08 08:45:22;;;;;;;1.17;0.95;;;14.90;99.90;;;;;;5041286;28;19987;-81
2023/05/08 08:47:50;;;;;;;;;;;15.00;99.90;;;;;;5007842;28;20538;-80
2023/05/08 08:50:18;;;;;;;0.65;0.65;;;15.20;99.90;;;;;;5011691;28;19920;-81
2023/05/08 08:53:23;;;;;;;2.97;1.90;;;15.30;99.90;;;;;;5005589;28;20049;-80
2023/05/08 08:55:52;;;;;;;0.85;0.85;;;15.50;99.90;;;;;;5027227;28;20040;-80
2023/05/08 08:58:49;;;;;;;1.90;0.63;;;15.70;99.90;;;;;;5023685;28;20036;-79
2023/05/08 09:01:18;;;;;;;0.75;0.73;;;15.90;99.90;;;;;;5020913;28;20044;-80
2023/05/08 09:03:44;;;;;;;0.85;0.85;;;16.00;99.90;;;;;;5026349;28;20560;-81
2023/05/08 09:06:11;;;;;;;2.17;1.75;;;16.20;99.90;;;;;;5010893;28;20083;-82
2023/05/08 09:08:37;;;;;;;0.47;0.47;;;16.20;99.90;;;;;;5012554;28;20051;-81
2023/05/08 09:11:02;;;;;;;;;;;16.40;99.90;;;;;;5028770;28;20136;-81
2023/05/08 09:13:28;;;;;;;1.17;1.15;;;16.50;99.90;;;;;;5025410;28;20273;-81
2023/05/08 09:15:56;;;;;;;;;;;16.60;99.90;;;;;;5013768;28;20063;-81
2023/05/08 09:18:22;;;;;;;1.50;1.27;;;16.80;99.90;;;;;;5030412;28;20270;-81
2023/05/08 09:20:48;;;;;;;;;;;16.90;99.90;;;;;;5027603;28;20041;-82
2023/05/08 09:23:16;;;;;;;1.17;1.17;;;17.10;99.90;;;;;;5027835;28;19920;-82
2023/05/08 09:25:47;;;;;;;1.15;0.55;;;17.30;99.90;;;;;;5008313;28;20593;-82
2023/05/08 09:28:25;;;;;;;1.58;1.48;;;17.20;99.90;;;;;;5023622;28;20036;-81
2023/05/08 09:30:52;;;;;;;0.40;0.40;;;17.30;99.90;;;;;;5029190;28;20055;-80
2023/05/08 09:33:18;;;;;;;0.32;0.32;;;17.40;99.90;;;;;;5023400;28;20041;-81
2023/05/08 09:35:44;;;;;;;1.08;0.88;;;17.50;99.90;;;;;;5030803;28;20037;-82
2023/05/08 09:38:30;;;;;;;;;;;17.60;99.90;;;;;;5011249;28;20631;-81
2023/05/08 09:41:15;;;;;;;2.17;1.67;;;17.80;99.90;;;;;;5020988;28;19925;-81
2023/05/08 09:43:43;;;;;;;1.23;1.13;;;17.90;99.90;;;;;;5027722;28;20405;-80
2023/05/08 09:46:27;;;;;;;1.35;1.25;;;17.90;99.90;;;;;;5005850;28;20068;-82
2023/05/08 09:48:57;;;;;;;0.98;0.82;;;18.10;99.90;;;;;;5019451;28;20040;-81
2023/05/08 09:51:25;;;;;;;0.30;0.30;;;18.20;99.90;;;;;;5023843;28;20037;-81
2023/05/08 09:53:53;;;;;;;1.58;1.23;;;18.40;99.90;;;;;;5019488;28;20368;-80
2023/05/08 09:56:32;;;;;;;0.85;0.85;;;18.50;99.90;;;;;;5023745;28;20048;-81
2023/05/08 09:58:58;;;;;;;0.47;0.47;;;18.30;99.90;;;;;;5027098;28;20040;-79
2023/05/08 10:01:26;;;;;;;;;;;18.20;99.90;;;;;;5045847;28;20041;-81
2023/05/08 10:03:52;;;;;;;1.80;1.15;;;18.20;99.90;;;;;;5006053;28;19920;-81
2023/05/08 10:06:18;;;;;;;;;;;18.30;99.90;;;;;;5027902;28;20036;-81
2023/05/08 10:08:45;;;;;;;1.70;1.60;;;18.30;99.90;;;;;;5026696;28;20418;-81
2023/05/08 10:11:18;;;;;;;0.32;0.32;;;18.30;99.90;;;;;;5027025;28;20094;-81
2023/05/08 10:13:45;;;;;;;0.35;0.35;;;18.30;99.90;;;;;;5030394;28;20258;-79
2023/05/08 10:16:15;;;;;;;0.20;0.20;;;18.40;99.90;;;;;;5023757;28;20036;-81
2023/05/08 10:18:55;;;;;;;1.23;1.13;;;18.40;99.90;;;;;;5021518;28;20041;-81
2023/05/08 10:21:23;;;;;;;0.65;0.65;;;18.50;99.90;;;;;;5025161;28;20038;-80
2023/05/08 10:23:53;;;;;;;0.70;0.40;;;18.40;99.90;;;;;;5020157;28;20049;-80
2023/05/08 10:26:28;;;;;;;1.70;0.70;;;18.40;99.90;;;;;;5004226;28;20174;-79
2023/05/08 10:29:09;;;;;;;0.82;0.82;;;18.40;99.90;;;;;;5025203;28;20390;-80
2023/05/08 10:31:39;;;;;;;1.05;1.05;;;18.60;99.90;;;;;;5022789;28;20460;-81
2023/05/08 10:34:07;;;;;;;7.10;0.98;;;18.60;99.90;;;;;;5027821;28;20067;-80
2023/05/08 10:36:35;;;;;;;1.00;1.00;;;18.60;99.90;;;;;;5028386;28;20119;-81
2023/05/08 10:39:01;;;;;;;1.60;1.38;;;18.50;99.90;;;;;;5021866;28;20065;-81
2023/05/08 10:41:27;;;;;;;1.38;1.27;;;18.50;99.90;;;;;;5008318;28;20129;-81
2023/05/08 10:43:54;;;;;;;1.08;1.02;;;18.60;99.90;;;;;;5023889;28;20051;-81
2023/05/08 10:46:26;;;;;;;1.17;1.13;;;18.70;99.90;;;;;;5024891;28;20153;-80
2023/05/08 10:49:24;;;;;;;0.70;0.70;;;18.80;99.90;;;;;;5027674;28;20508;-81
2023/05/08 10:51:50;;;;;;;1.17;1.17;;;19.10;99.90;;;;;;5023058;28;20449;-80
2023/05/08 10:54:43;;;;;;;0.60;0.60;;;19.20;99.90;;;;;;5009883;28;20041;-81
2023/05/08 10:57:10;;;;;;;0.55;0.55;;;19.30;99.90;;;;;;5031437;28;20382;-80
2023/05/08 10:59:38;;;;;;;1.33;0.93;;;19.40;99.90;;;;;;5033355;28;20135;-81
2023/05/08 11:02:07;;;;;;;1.48;1.38;;;19.40;99.90;;;;;;5025646;28;20659;-81
2023/05/08 11:04:34;;;;;;;1.23;0.85;;;19.40;99.90;;;;;;5022684;28;20059;-81
2023/05/08 11:07:00;;;;;;;2.63;2.42;;;19.50;99.90;;;;;;5004714;28;20033;-81
2023/05/08 11:09:28;;;;;;;0.40;0.40;;;19.50;99.90;;;;;;5010448;28;20059;-81
2023/05/08 11:12:19;;;;;;;0.80;0.73;;;19.60;99.90;;;;;;5019336;28;20127;-80
2023/05/08 11:15:01;;;;;;;4.43;1.73;;;19.70;99.90;;;;;;5027453;28;20076;-81
2023/05/08 11:17:27;;;;;;;4.80;2.15;;;19.80;99.90;;;;;;5033047;28;20504;-81
2023/05/08 11:20:02;;;;;;;1.67;1.58;;;19.90;99.90;;;;;;5022758;28;20067;-80
2023/05/08 11:22:33;;;;;;;1.73;1.63;;;20.00;99.90;;;;;;5007931;28;20368;-80
2023/05/08 11:25:01;;;;;;;1.70;1.35;;;20.10;99.90;;;;;;5026066;28;20044;-81
2023/05/08 11:27:48;;;;;;;1.88;1.25;;;20.20;99.90;;;;;;5026128;28;20047;-81
2023/05/08 11:30:36;;;;;;;1.65;1.38;;;20.30;99.90;;;;;;5008570;28;20124;-80
2023/05/08 11:33:05;;;;;;;2.20;2.00;;;20.40;99.90;;;;;;5012768;28;20414;-82
2023/05/08 11:35:46;;;;;;;0.55;0.55;;;20.60;99.90;;;;;;5017634;28;20127;-80
2023/05/08 11:38:34;;;;;;;0.63;0.63;;;20.70;99.90;;;;;;5021376;28;20154;-80
2023/05/08 11:41:10;;;;;;;0.80;0.80;;;20.80;99.90;;;;;;5030955;28;20049;-81
2023/05/08 11:43:45;;;;;;;1.13;1.02;;;20.90;99.90;;;;;;5027389;28;20041;-80
2023/05/08 11:46:20;;;;;;;1.08;0.80;;;21.00;99.90;;;;;;5030442;28;20128;-81
2023/05/08 11:48:46;;;;;;;1.55;1.05;;;21.00;99.90;;;;;;5044999;28;20604;-80
2023/05/08 11:51:14;;;;;;;1.20;1.15;;;21.10;99.90;;;;;;5021531;28;20474;-83
2023/05/08 11:53:42;;;;;;;1.48;1.38;;;21.20;99.90;;;;;;5028209;28;20068;-81
2023/05/08 11:56:08;;;;;;;2.28;0.68;;;21.30;99.90;;;;;;5014306;28;20445;-82
2023/05/08 11:58:35;;;;;;;1.27;1.10;;;21.50;99.90;;;;;;5010789;28;20088;-79
2023/05/08 12:01:01;;;;;;;3.95;2.08;;;21.60;99.90;;;;;;5022270;28;20037;-83
2023/05/08 12:03:27;;;;;;;2.17;1.98;;;21.70;99.90;;;;;;5013503;28;20128;-85
2023/05/08 12:05:57;;;;;;;1.90;1.80;;;21.80;99.90;;;;;;5029780;28;20140;-84
2023/05/08 12:08:23;;;;;;;1.92;1.83;;;21.90;99.90;;;;;;5010433;28;20040;-84
2023/05/08 12:10:54;;;;;;;3.72;1.92;;;21.90;99.90;;;;;;5026915;28;20107;-82
2023/05/08 12:13:20;;;;;;;1.33;1.23;;;21.90;99.90;;;;;;5026847;28;20529;-83
2023/05/08 12:15:47;;;;;;;1.45;1.00;;;22.10;99.90;;;;;;5032631;28;20052;-83
2023/05/08 12:18:15;;;;;;;2.10;1.83;;;22.20;99.90;;;;;;5034495;28;20487;-83
2023/05/08 12:20:42;;;;;;;1.98;1.35;;;22.30;99.90;;;;;;5013661;28;20076;-82
2023/05/08 12:23:11;;;;;;;2.92;2.10;;;22.50;99.90;;;;;;5030282;28;20033;-83
2023/05/08 12:25:38;;;;;;;0.98;0.82;;;22.70;99.90;;;;;;5023401;28;20520;-81
2023/05/08 12:28:08;;;;;;;3.88;1.42;;;22.80;99.90;;;;;;5016018;28;20064;-82
2023/05/08 12:30:34;;;;;;;2.35;1.48;;;23.10;99.90;;;;;;5007339;28;20130;-81
2023/05/08 12:33:01;;;;;;;0.77;0.77;;;23.40;99.90;;;;;;5010895;28;20041;-82
2023/05/08 12:35:27;;;;;;;1.27;1.10;;;23.60;99.90;;;;;;5017625;28;20487;-82
2023/05/08 12:37:53;;;;;;;1.17;1.10;;;23.90;99.90;;;;;;5035244;28;20067;-82
2023/05/08 12:40:46;;;;;;;0.77;0.77;;;24.40;99.90;;;;;;5017535;28;20049;-81
2023/05/08 12:43:12;;;;;;;1.13;0.95;;;24.60;99.90;;;;;;5037262;28;20052;-82
2023/05/08 12:45:39;;;;;;;1.48;1.30;;;24.80;99.90;;;;;;5013062;28;20055;-82
2023/05/08 12:48:16;;;;;;;1.92;1.73;;;24.80;99.90;;;;;;5029749;28;20394;-84
2023/05/08 12:50:43;;;;;;;2.05;1.77;;;25.00;99.90;;;;;;5028340;28;20056;-83
2023/05/08 12:53:11;;;;;;;0.77;0.77;;;25.10;99.90;;;;;;5018164;28;20508;-83
2023/05/08 12:55:39;;;;;;;0.75;0.75;;;25.10;99.90;;;;;;5014775;28;20057;-81
2023/05/08 12:58:12;;;;;;;0.68;0.68;;;25.20;99.90;;;;;;5026436;28;20123;-84
2023/05/08 13:00:41;;;;;;;0.70;0.70;;;25.40;99.90;;;;;;4998342;28;20059;-85
2023/05/08 13:03:08;;;;;;;2.55;2.38;;;25.40;99.90;;;;;;5010380;28;20047;-85
2023/05/08 13:05:36;;;;;;;0.93;0.65;;;25.40;99.90;;;;;;5042703;28;20448;-83
2023/05/08 13:08:04;;;;;;;0.95;0.85;;;25.50;99.90;;;;;;5027876;28;20498;-82
2023/05/08 13:10:47;;;;;;;2.25;1.50;;;25.60;99.90;;;;;;5030402;28;20080;-84